createdAt,value
2018-12-19T05:00:26.081Z,70.83
2018-12-19T05:02:55.601Z,69.75
2018-12-19T05:05:24.974Z,66.40
2018-12-19T05:07:54.805Z,60.92
2018-12-19T05:10:24.139Z,59.67
2018-12-19T05:12:53.830Z,66.67
2018-12-19T05:15:23.587Z,59.40
2018-12-19T05:17:53.184Z,66.72
2018-12-19T05:20:22.682Z,60.20
2018-12-19T05:22:52.541Z,63.33
2018-12-19T05:25:22.091Z,75.00
2018-12-19T05:27:51.700Z,64.07
2018-12-19T05:30:21.751Z,66.65
2018-12-19T05:32:51.308Z,65.37
2018-12-19T05:35:20.811Z,69.37
2018-12-19T05:37:50.661Z,59.33
2018-12-19T05:40:20.225Z,295.07
2018-12-19T05:42:49.942Z,78.35
2018-12-19T05:45:20.003Z,89.50
2018-12-19T05:47:49.875Z,72.78
2018-12-19T05:50:21.849Z,69.97
2018-12-19T05:52:51.364Z,56.63
2018-12-19T05:55:21.079Z,68.37
2018-12-19T05:57:51.016Z,71.62
2018-12-19T06:00:20.629Z,71.53
2018-12-19T06:02:50.179Z,69.32
2018-12-19T06:05:20.045Z,129.57
2018-12-19T06:07:49.708Z,84.65
2018-12-19T06:10:26.192Z,80.87
2018-12-19T06:12:50.875Z,67.05
2018-12-19T06:15:20.644Z,66.00
2018-12-19T06:17:50.495Z,67.87
2018-12-19T06:20:20.252Z,71.25
2018-12-19T06:22:49.715Z,70.75
2018-12-19T06:25:19.590Z,77.78
2018-12-19T06:27:49.436Z,65.78
2018-12-19T06:30:19.275Z,71.92
2018-12-19T06:32:49.111Z,224.37
2018-12-19T06:35:18.570Z,84.42
2018-12-19T06:37:48.278Z,67.35
2018-12-19T06:40:18.134Z,67.08
2018-12-19T06:42:47.946Z,69.10
2018-12-19T06:45:17.861Z,76.57
2018-12-19T06:47:47.891Z,79.17
2018-12-19T06:50:17.253Z,68.83
2018-12-19T06:52:46.745Z,65.42
2018-12-19T06:55:16.393Z,68.95
2018-12-19T06:57:46.131Z,72.37
2018-12-19T07:00:15.936Z,70.50
2018-12-19T07:02:45.536Z,68.33
2018-12-19T07:05:15.255Z,82.02
2018-12-19T07:07:44.945Z,74.05
2018-12-19T07:10:14.955Z,73.40
2018-12-19T07:12:44.443Z,67.12
2018-12-19T07:15:14.148Z,65.28
2018-12-19T07:17:44.139Z,65.83
2018-12-19T07:20:13.704Z,64.47
2018-12-19T07:22:43.292Z,81.40
2018-12-19T07:25:13.263Z,77.03
2018-12-19T07:27:42.897Z,69.50
2018-12-19T07:30:12.524Z,68.80
2018-12-19T07:32:42.212Z,54.70
2018-12-19T07:35:12.084Z,57.27
2018-12-19T07:37:41.691Z,58.92
2018-12-19T07:40:11.715Z,54.50
2018-12-19T07:42:41.297Z,58.78
2018-12-19T07:45:10.934Z,55.40
2018-12-19T07:47:40.837Z,56.13
2018-12-19T07:50:10.503Z,55.83
2018-12-19T07:52:40.137Z,82.00
2018-12-19T07:55:09.379Z,55.63
2018-12-19T07:57:38.881Z,58.30
2018-12-19T08:00:08.585Z,55.95
2018-12-19T08:02:38.351Z,53.68
2018-12-19T08:05:08.250Z,54.75
2018-12-19T08:07:37.872Z,63.92
2018-12-19T08:10:08.442Z,62.55
2018-12-19T08:12:38.102Z,69.42
2018-12-19T08:15:07.872Z,58.60
2018-12-19T08:17:37.547Z,58.95
2018-12-19T08:20:07.254Z,49.73
2018-12-19T08:22:37.191Z,57.38
2018-12-19T08:25:07.022Z,51.73
2018-12-19T08:27:36.733Z,58.00
2018-12-19T08:30:08.343Z,78.83
2018-12-19T08:32:38.042Z,54.18
2018-12-19T08:35:07.770Z,54.00
2018-12-19T08:37:37.693Z,58.70
2018-12-19T08:40:07.841Z,50.65
2018-12-19T08:42:37.299Z,52.10
2018-12-19T08:45:07.526Z,51.88
2018-12-19T08:47:37.047Z,52.85
2018-12-19T08:50:08.799Z,53.05
2018-12-19T08:52:39.007Z,65.05
2018-12-19T08:55:08.898Z,48.02
2018-12-19T08:57:38.356Z,54.10
2018-12-19T09:00:09.989Z,56.58
2018-12-19T09:02:41.083Z,48.70
2018-12-19T09:05:10.643Z,54.80
2018-12-19T09:07:40.324Z,47.23
2018-12-19T09:10:10.515Z,51.70
2018-12-19T09:12:39.945Z,61.20
2018-12-19T09:15:09.559Z,57.45
2018-12-19T09:17:39.298Z,52.83
2018-12-19T09:20:09.544Z,58.10
2018-12-19T09:22:38.969Z,52.62
2018-12-19T09:25:08.703Z,56.95
2018-12-19T09:27:38.325Z,66.85
2018-12-19T09:30:08.149Z,75.20
2018-12-19T09:32:37.671Z,290.12
2018-12-19T09:35:07.466Z,52.67
2018-12-19T09:37:37.220Z,50.98
2018-12-19T09:40:06.949Z,52.58
2018-12-19T09:42:36.374Z,51.95
2018-12-19T09:45:06.330Z,50.50
2018-12-19T09:47:36.062Z,45.43
2018-12-19T09:50:05.997Z,50.55
2018-12-19T09:52:35.932Z,48.30
2018-12-19T09:55:05.802Z,54.00
2018-12-19T09:57:35.596Z,55.10
2018-12-19T10:00:06.592Z,52.27
2018-12-19T10:02:36.391Z,48.63
2018-12-19T10:05:06.251Z,49.08
2018-12-19T10:07:35.999Z,43.45
2018-12-19T10:10:05.905Z,45.10
2018-12-19T10:12:35.994Z,47.00
2018-12-19T10:15:05.884Z,77.70
2018-12-19T10:17:40.959Z,46.18
2018-12-19T10:20:06.463Z,46.88
2018-12-19T10:22:36.321Z,49.65
2018-12-19T10:25:11.930Z,47.90
2018-12-19T10:27:41.893Z,59.55
2018-12-19T10:30:13.090Z,55.38
2018-12-19T10:32:42.672Z,52.27
2018-12-19T10:35:13.142Z,58.25
2018-12-19T10:37:42.740Z,49.30
2018-12-19T10:40:13.097Z,48.33
2018-12-19T10:42:43.604Z,43.80
2018-12-19T10:45:13.215Z,45.10
2018-12-19T10:47:42.771Z,47.08
2018-12-19T10:50:12.845Z,40.73
2018-12-19T10:52:42.552Z,43.48
2018-12-19T10:55:12.044Z,53.75
2018-12-19T10:57:42.047Z,51.30
2018-12-19T11:00:18.600Z,61.20
2018-12-19T11:02:48.442Z,45.58
2018-12-19T11:05:18.151Z,48.78
2018-12-19T11:07:47.656Z,50.67
2018-12-19T11:10:17.396Z,51.15
2018-12-19T11:12:47.050Z,45.85
2018-12-19T11:15:16.667Z,43.02
2018-12-19T11:17:46.503Z,48.85
2018-12-19T11:20:17.161Z,49.88
2018-12-19T11:22:46.893Z,48.48
2018-12-19T11:25:16.551Z,56.98
2018-12-19T11:27:46.243Z,60.70
2018-12-19T11:30:15.989Z,45.78
2018-12-19T11:32:45.697Z,42.55
2018-12-19T11:35:15.161Z,42.05
2018-12-19T11:37:45.011Z,46.95
2018-12-19T11:40:14.543Z,49.08
2018-12-19T11:42:44.205Z,265.02
2018-12-19T11:45:14.149Z,46.10
2018-12-19T11:47:43.870Z,41.75
2018-12-19T11:50:13.736Z,45.88
2018-12-19T11:52:43.691Z,41.15
2018-12-19T11:55:13.296Z,39.88
2018-12-19T11:57:42.914Z,41.37
2018-12-19T12:00:13.124Z,44.05
2018-12-19T12:02:42.598Z,46.95
2018-12-19T12:05:12.172Z,45.58
2018-12-19T12:07:42.255Z,44.58
2018-12-19T12:10:11.862Z,39.88
2018-12-19T12:12:41.571Z,39.27
2018-12-19T12:15:11.596Z,41.92
2018-12-19T12:17:41.257Z,42.30
2018-12-19T12:20:10.859Z,39.48
2018-12-19T12:22:41.224Z,39.67
2018-12-19T12:25:10.662Z,42.60
2018-12-19T12:27:40.206Z,34.70
2018-12-19T12:30:09.881Z,36.17
2018-12-19T12:32:39.640Z,39.18
2018-12-19T12:35:09.448Z,41.60
2018-12-19T12:37:38.942Z,38.75
2018-12-19T12:40:09.254Z,37.85
2018-12-19T12:42:38.794Z,37.05
2018-12-19T12:45:08.556Z,37.38
2018-12-19T12:47:38.256Z,39.27
2018-12-19T12:50:07.892Z,38.90
2018-12-19T12:52:37.654Z,41.73
2018-12-19T12:55:07.292Z,36.93
2018-12-19T12:57:37.162Z,40.95
2018-12-19T13:00:07.634Z,39.45
2018-12-19T13:02:37.183Z,39.65
2018-12-19T13:05:07.030Z,41.08
2018-12-19T13:07:36.619Z,55.15
2018-12-19T13:10:07.162Z,50.00
2018-12-19T13:12:36.979Z,42.95
2018-12-19T13:15:07.300Z,41.53
2018-12-19T13:17:37.014Z,42.95
2018-12-19T13:20:07.424Z,39.70
2018-12-19T13:22:37.251Z,54.10
2018-12-19T13:25:06.892Z,39.08
2018-12-19T13:27:36.882Z,40.33
2018-12-19T13:30:08.422Z,42.48
2018-12-19T13:32:38.454Z,45.80
2018-12-19T13:35:08.168Z,48.10
2018-12-19T13:37:37.552Z,43.45
2018-12-19T13:40:07.941Z,44.65
2018-12-19T13:42:37.685Z,48.85
2018-12-19T13:45:07.974Z,42.35
2018-12-19T13:47:37.651Z,45.28
2018-12-19T13:50:08.391Z,48.08
2018-12-19T13:52:38.099Z,59.13
2018-12-19T13:55:07.854Z,58.50
2018-12-19T13:57:37.295Z,53.30
2018-12-19T14:00:09.473Z,49.18
2018-12-19T14:02:38.971Z,51.02
2018-12-19T14:05:08.960Z,47.98
2018-12-19T14:07:38.372Z,49.23
2018-12-19T14:10:08.022Z,47.20
2018-12-19T14:12:38.149Z,49.98
2018-12-19T14:15:08.476Z,49.90
2018-12-19T14:17:37.936Z,48.58
2018-12-19T14:20:08.182Z,51.90
2018-12-19T14:22:37.828Z,57.58
2018-12-19T14:25:07.580Z,54.48
2018-12-19T14:27:37.384Z,50.05
2018-12-19T14:30:07.874Z,55.95
2018-12-19T14:32:37.418Z,48.10
2018-12-19T14:35:07.477Z,54.55
2018-12-19T14:37:37.207Z,60.48
2018-12-19T14:40:07.172Z,54.93
2018-12-19T14:42:36.903Z,55.60
2018-12-19T14:45:07.638Z,52.90
2018-12-19T14:47:37.421Z,88.67
2018-12-19T14:50:07.254Z,53.13
2018-12-19T14:52:36.911Z,56.63
2018-12-19T14:55:06.645Z,56.90
2018-12-19T14:57:36.381Z,67.67
2018-12-19T15:00:07.303Z,55.98
2018-12-19T15:02:36.913Z,55.20
2018-12-19T15:05:06.353Z,55.20
2018-12-19T15:07:35.861Z,60.88
2018-12-19T15:10:06.515Z,56.65
2018-12-19T15:12:36.444Z,57.73
2018-12-19T15:15:08.689Z,54.50
2018-12-19T15:17:38.728Z,53.90
2018-12-19T15:20:08.517Z,55.48
2018-12-19T15:22:38.145Z,66.05
2018-12-19T15:25:08.096Z,60.00
2018-12-19T15:27:37.919Z,61.98
2018-12-19T15:30:07.694Z,58.17
2018-12-19T15:32:38.380Z,63.42
2018-12-19T15:35:08.315Z,214.75
2018-12-19T15:37:37.930Z,63.78
2018-12-19T15:40:07.737Z,70.85
2018-12-19T15:42:37.388Z,58.55
2018-12-19T15:45:07.557Z,53.28
2018-12-19T15:47:37.592Z,55.55
2018-12-19T15:50:08.133Z,61.73
2018-12-19T15:52:37.814Z,65.00
2018-12-19T15:55:07.602Z,67.32
2018-12-19T15:57:37.187Z,66.65
2018-12-19T16:00:07.493Z,64.40
2018-12-19T16:02:37.400Z,64.72
2018-12-19T16:05:07.057Z,69.67
2018-12-19T16:07:36.655Z,67.85
2018-12-19T16:10:06.539Z,63.17
2018-12-19T16:12:39.199Z,65.15
2018-12-19T16:15:06.517Z,63.52
2018-12-19T16:17:36.055Z,64.30
2018-12-19T16:20:06.847Z,70.67
2018-12-19T16:22:36.613Z,107.70
2018-12-19T16:25:07.266Z,65.67
2018-12-19T16:27:36.806Z,62.88
2018-12-19T16:30:07.552Z,58.78
2018-12-19T16:32:36.963Z,64.03
2018-12-19T16:35:07.080Z,61.58
2018-12-19T16:37:36.598Z,63.75
2018-12-19T16:40:06.726Z,65.17
2018-12-19T16:42:36.388Z,61.20
2018-12-19T16:45:06.583Z,69.95
2018-12-19T16:47:36.247Z,71.12
2018-12-19T16:50:06.600Z,66.82
2018-12-19T16:52:36.457Z,58.08
2018-12-19T16:55:06.430Z,58.38
2018-12-19T16:57:36.061Z,70.00
2018-12-19T17:00:06.252Z,61.00
2018-12-19T17:02:36.098Z,62.85
2018-12-19T17:05:06.275Z,59.63
2018-12-19T17:07:36.020Z,60.58
2018-12-19T17:10:06.176Z,61.35
2018-12-19T17:12:35.891Z,339.52
2018-12-19T17:15:05.804Z,65.32
2018-12-19T17:17:35.842Z,67.45
2018-12-19T17:20:06.182Z,61.68
2018-12-19T17:22:35.888Z,73.10
2018-12-19T17:25:05.625Z,63.30
2018-12-19T17:27:35.291Z,65.75
2018-12-19T17:30:05.330Z,72.53
2018-12-19T17:32:35.155Z,71.90
2018-12-19T17:35:05.439Z,87.02
2018-12-19T17:37:35.339Z,76.05
2018-12-19T17:40:05.471Z,75.00
2018-12-19T17:42:35.023Z,71.12
2018-12-19T17:45:04.881Z,64.35
2018-12-19T17:47:34.605Z,63.60
2018-12-19T17:50:04.696Z,63.30
2018-12-19T17:52:34.351Z,73.28
2018-12-19T17:55:03.899Z,64.60
2018-12-19T17:57:33.330Z,72.60
2018-12-19T18:00:03.059Z,60.20
2018-12-19T18:02:32.608Z,58.83
2018-12-19T18:05:02.154Z,57.27
2018-12-19T18:07:31.927Z,80.00
2018-12-19T18:10:01.480Z,63.55
2018-12-19T18:12:31.112Z,57.80
2018-12-19T18:15:01.024Z,66.85
2018-12-19T18:17:30.611Z,68.12
2018-12-19T18:20:00.344Z,67.22
2018-12-19T18:22:30.061Z,72.58
2018-12-19T18:24:59.773Z,71.85
2018-12-19T18:27:29.369Z,76.95
2018-12-19T18:29:58.812Z,72.25
2018-12-19T18:32:28.466Z,80.15
2018-12-19T18:34:58.332Z,82.30
2018-12-19T18:37:28.488Z,85.83
2018-12-19T18:39:58.103Z,80.77
2018-12-19T18:42:28.059Z,82.47
2018-12-19T18:44:57.762Z,80.10
2018-12-19T18:47:27.352Z,84.28
2018-12-19T18:49:57.355Z,90.35
2018-12-19T18:52:27.064Z,96.28
2018-12-19T18:54:56.645Z,97.12
2018-12-19T18:57:26.628Z,99.07
2018-12-19T18:59:56.230Z,101.65
2018-12-19T19:02:26.584Z,104.03
2018-12-19T19:04:56.531Z,144.40
2018-12-19T19:07:26.261Z,184.07
2018-12-19T19:09:56.064Z,135.68
2018-12-19T19:12:26.676Z,121.87
2018-12-19T19:14:56.432Z,113.60
2018-12-19T19:17:26.156Z,115.42
2018-12-19T19:19:55.971Z,116.15
2018-12-19T19:22:25.681Z,122.60
2018-12-19T19:24:55.419Z,116.93
2018-12-19T19:27:26.865Z,117.70
2018-12-19T19:29:56.543Z,123.10
2018-12-19T19:32:26.095Z,119.02
2018-12-19T19:34:56.490Z,123.10
2018-12-19T19:37:26.172Z,123.05
2018-12-19T19:39:55.896Z,126.60
2018-12-19T19:42:25.662Z,161.55
2018-12-19T19:44:55.259Z,149.42
2018-12-19T19:47:24.812Z,156.60
2018-12-19T19:49:54.474Z,165.45
2018-12-19T19:52:24.214Z,162.18
2018-12-19T19:54:53.903Z,167.28
2018-12-19T19:57:23.781Z,172.78
2018-12-19T19:59:53.240Z,171.20
2018-12-19T20:02:22.759Z,174.07
2018-12-19T20:04:52.304Z,156.40
2018-12-19T20:07:21.919Z,160.70
2018-12-19T20:09:51.686Z,150.18
2018-12-19T20:12:21.572Z,145.57
2018-12-19T20:14:51.116Z,152.47
2018-12-19T20:17:26.582Z,149.72
2018-12-19T20:19:56.081Z,159.80
2018-12-19T20:22:26.472Z,153.85
2018-12-19T20:24:56.345Z,155.40
2018-12-19T20:27:25.699Z,155.07
2018-12-19T20:29:55.424Z,159.60
2018-12-19T20:32:24.792Z,151.18
2018-12-19T20:34:54.442Z,157.10
2018-12-19T20:37:23.930Z,144.62
2018-12-19T20:39:54.034Z,135.90
2018-12-19T20:42:23.546Z,136.45
2018-12-19T20:44:53.357Z,134.93
2018-12-19T20:47:29.210Z,135.75
2018-12-19T20:49:59.079Z,130.27
2018-12-19T20:52:28.472Z,140.10
2018-12-19T20:54:57.917Z,132.27
2018-12-19T20:57:27.375Z,129.42
2018-12-19T20:59:57.108Z,133.12
2018-12-19T21:02:26.900Z,124.55
2018-12-19T21:04:56.465Z,130.07
2018-12-19T21:07:26.128Z,124.50
2018-12-19T21:09:55.623Z,137.92
2018-12-19T21:12:24.968Z,129.40
2018-12-19T21:14:54.617Z,149.60
2018-12-19T21:17:29.570Z,150.82
2018-12-19T21:19:58.923Z,134.95
2018-12-19T21:22:28.556Z,128.97
2018-12-19T21:24:58.588Z,136.10
2018-12-19T21:27:28.169Z,128.30
2018-12-19T21:29:57.688Z,147.78
2018-12-19T21:32:27.496Z,142.98
2018-12-19T21:34:57.000Z,125.60
2018-12-19T21:37:26.437Z,126.62
2018-12-19T21:39:56.181Z,130.57
2018-12-19T21:42:27.203Z,117.65
2018-12-19T21:44:56.939Z,126.27
2018-12-19T21:47:26.415Z,118.60
2018-12-19T21:49:56.082Z,125.75
2018-12-19T21:52:27.572Z,135.18
2018-12-19T21:54:57.695Z,156.50
2018-12-19T21:57:27.431Z,178.60
2018-12-19T21:59:57.324Z,190.30
2018-12-19T22:02:27.444Z,198.85
2018-12-19T22:04:57.005Z,191.75
2018-12-19T22:07:28.105Z,173.00
2018-12-19T22:09:57.749Z,162.25
2018-12-19T22:12:27.473Z,164.40
2018-12-19T22:14:57.312Z,157.67
2018-12-19T22:17:32.143Z,162.03
2018-12-19T22:20:01.746Z,167.68
2018-12-19T22:22:31.467Z,162.77
2018-12-19T22:25:01.038Z,169.82
2018-12-19T22:27:30.904Z,182.68
2018-12-19T22:30:00.607Z,180.97
2018-12-19T22:32:30.082Z,202.47
2018-12-19T22:35:00.092Z,204.68
2018-12-19T22:37:29.884Z,197.80
2018-12-19T22:39:59.424Z,195.57
2018-12-19T22:42:29.059Z,192.95
2018-12-19T22:44:58.723Z,183.80
2018-12-19T22:47:28.463Z,191.37
2018-12-19T22:49:58.354Z,198.82
2018-12-19T22:52:28.076Z,188.85
2018-12-19T22:54:57.552Z,188.20
2018-12-19T22:57:27.278Z,177.53
2018-12-19T22:59:56.980Z,178.72
2018-12-19T23:02:31.844Z,189.35
2018-12-19T23:05:01.562Z,180.65
2018-12-19T23:07:31.151Z,178.25
2018-12-19T23:10:00.891Z,172.35
2018-12-19T23:12:30.549Z,176.82
2018-12-19T23:15:00.243Z,176.55
2018-12-19T23:17:35.208Z,155.12
2018-12-19T23:20:05.216Z,145.95
2018-12-19T23:22:34.781Z,159.63
2018-12-19T23:25:04.593Z,163.45
2018-12-19T23:27:34.308Z,170.68
2018-12-19T23:30:03.793Z,167.35
2018-12-19T23:32:33.670Z,171.70
2018-12-19T23:35:03.287Z,174.53
2018-12-19T23:37:32.954Z,166.43
2018-12-19T23:40:02.836Z,164.37
2018-12-19T23:42:32.579Z,151.78
2018-12-19T23:45:02.296Z,155.65
2018-12-19T23:47:32.469Z,159.03
2018-12-19T23:50:02.046Z,155.25
2018-12-19T23:52:31.659Z,152.35
2018-12-19T23:55:01.307Z,146.15
2018-12-19T23:57:31.487Z,146.65
